createdAt,value
2018-11-14T00:00:08.766Z,3.73
2018-11-14T00:02:36.956Z,9.43
2018-11-14T00:05:06.394Z,2.60
2018-11-14T00:07:34.633Z,5.30
2018-11-14T00:10:04.103Z,5.33
2018-11-14T00:12:32.421Z,3.27
2018-11-14T00:15:00.576Z,4.20
2018-11-14T00:17:28.756Z,3.23
2018-11-14T00:19:56.936Z,6.60
2018-11-14T00:22:25.083Z,6.07
2018-11-14T00:24:54.389Z,5.10
2018-11-14T00:27:22.258Z,7.87
2018-11-14T00:29:51.042Z,9.00
2018-11-14T00:32:19.168Z,8.60
2018-11-14T00:34:47.455Z,6.00
2018-11-14T00:37:15.572Z,5.23
2018-11-14T00:39:44.050Z,9.70
2018-11-14T00:42:12.233Z,5.17
2018-11-14T00:44:40.396Z,5.70
2018-11-14T00:47:08.656Z,6.20
2018-11-14T00:49:36.824Z,6.90
2018-11-14T00:52:06.689Z,7.67
2018-11-14T00:54:34.853Z,5.30
2018-11-14T00:57:06.854Z,5.73
2018-11-14T00:59:34.996Z,10.63
2018-11-14T01:02:07.192Z,6.50
2018-11-14T01:04:35.497Z,6.87
2018-11-14T01:07:05.000Z,6.23
2018-11-14T01:09:33.180Z,6.93
2018-11-14T01:12:05.665Z,6.67
2018-11-14T01:14:34.183Z,8.33
2018-11-14T01:17:06.226Z,13.60
2018-11-14T01:19:34.412Z,6.93
2018-11-14T01:22:03.371Z,5.10
2018-11-14T01:24:31.481Z,9.90
2018-11-14T01:26:59.692Z,6.97
2018-11-14T01:29:28.765Z,9.60
2018-11-14T01:31:56.937Z,9.40
2018-11-14T01:34:25.092Z,10.60
2018-11-14T01:36:53.262Z,14.00
2018-11-14T01:39:21.411Z,8.07
2018-11-14T01:41:50.501Z,15.23
2018-11-14T01:44:18.709Z,6.00
2018-11-14T01:46:46.864Z,7.00
2018-11-14T01:49:15.066Z,11.10
2018-11-14T01:51:43.230Z,9.47
2018-11-14T01:54:11.385Z,8.33
2018-11-14T01:56:39.525Z,8.40
2018-11-14T01:59:07.648Z,10.60
2018-11-14T02:01:35.839Z,8.20
2018-11-14T02:04:05.006Z,12.27
2018-11-14T02:06:33.152Z,5.27
2018-11-14T02:09:02.161Z,9.20
2018-11-14T02:11:30.304Z,8.23
2018-11-14T02:13:58.460Z,7.60
2018-11-14T02:16:26.820Z,7.90
2018-11-14T02:18:54.988Z,5.60
2018-11-14T02:21:23.178Z,5.03
2018-11-14T02:23:51.328Z,3.70
2018-11-14T02:26:19.485Z,8.07
2018-11-14T02:28:47.668Z,7.67
2018-11-14T02:31:15.828Z,6.13
2018-11-14T02:33:44.057Z,7.27
2018-11-14T02:36:12.253Z,8.20
2018-11-14T02:38:40.516Z,8.63
2018-11-14T02:41:09.122Z,5.70
2018-11-14T02:43:37.293Z,6.40
2018-11-14T02:46:05.797Z,6.27
2018-11-14T02:48:34.004Z,6.13
2018-11-14T02:51:13.781Z,5.80
2018-11-14T02:53:42.940Z,7.53
2018-11-14T02:56:11.737Z,4.97
2018-11-14T02:58:39.853Z,5.50
2018-11-14T03:01:08.316Z,10.23
2018-11-14T03:03:36.466Z,8.87
2018-11-14T03:06:05.121Z,7.97
2018-11-14T03:08:33.292Z,6.20
2018-11-14T03:11:05.651Z,7.10
2018-11-14T03:13:33.809Z,3.83
2018-11-14T03:16:07.876Z,5.40
2018-11-14T03:18:36.041Z,10.93
2018-11-14T03:21:05.045Z,4.73
2018-11-14T03:23:33.172Z,6.13
2018-11-14T03:26:02.882Z,4.23
2018-11-14T03:28:31.024Z,6.07
2018-11-14T03:30:59.211Z,6.03
2018-11-14T03:33:28.005Z,5.97
2018-11-14T03:36:07.662Z,5.27
2018-11-14T03:38:35.808Z,4.60
2018-11-14T03:41:05.005Z,5.07
2018-11-14T03:43:33.146Z,8.30
2018-11-14T03:46:04.660Z,10.70
2018-11-14T03:48:32.809Z,7.80
2018-11-14T03:51:06.638Z,6.10
2018-11-14T03:53:34.808Z,8.30
2018-11-14T03:56:08.041Z,16.13
2018-11-14T03:58:36.313Z,9.30
2018-11-14T04:01:08.676Z,16.33
2018-11-14T04:03:36.848Z,7.73
2018-11-14T04:06:06.778Z,12.33
2018-11-14T04:08:34.993Z,7.03
2018-11-14T04:11:07.905Z,7.13
2018-11-14T04:13:37.017Z,9.73
2018-11-14T04:16:05.552Z,12.30
2018-11-14T04:18:33.792Z,10.57
2018-11-14T04:21:06.358Z,7.57
2018-11-14T04:23:39.014Z,12.67
2018-11-14T04:26:07.133Z,9.53
2018-11-14T04:28:35.454Z,14.70
2018-11-14T04:31:10.085Z,7.33
2018-11-14T04:33:38.707Z,6.03
2018-11-14T04:36:06.853Z,10.83
2018-11-14T04:38:34.988Z,11.40
2018-11-14T04:41:04.964Z,6.60
2018-11-14T04:43:33.153Z,10.57
2018-11-14T04:48:34.833Z,8.77
2018-11-14T04:51:05.714Z,5.90
2018-11-14T04:53:33.889Z,6.43
2018-11-14T04:56:04.857Z,7.47
2018-11-14T04:58:33.012Z,7.67
2018-11-14T05:01:05.834Z,13.47
2018-11-14T05:03:33.941Z,9.10
2018-11-14T05:06:07.149Z,11.37
2018-11-14T05:08:35.290Z,5.20
2018-11-14T05:11:03.889Z,10.27
2018-11-14T05:13:32.166Z,6.87
2018-11-14T05:16:00.742Z,7.37
2018-11-14T05:18:29.012Z,5.97
2018-11-14T05:20:57.157Z,3.93
2018-11-14T05:23:25.349Z,7.10
2018-11-14T05:25:53.498Z,11.20
2018-11-14T05:28:22.658Z,8.90
2018-11-14T05:30:50.826Z,7.70
2018-11-14T05:33:18.948Z,8.63
2018-11-14T05:35:47.085Z,6.60
2018-11-14T05:38:15.257Z,16.47
2018-11-14T05:40:43.445Z,7.97
2018-11-14T05:43:11.606Z,9.23
2018-11-14T05:45:39.879Z,8.20
2018-11-14T05:48:08.839Z,7.37
2018-11-14T05:50:37.241Z,7.70
2018-11-14T05:53:05.423Z,6.93
2018-11-14T05:55:34.103Z,7.87
2018-11-14T05:58:04.633Z,11.40
2018-11-14T06:00:32.864Z,12.93
2018-11-14T06:03:04.769Z,10.03
2018-11-14T06:05:32.929Z,55.37
2018-11-14T06:08:03.780Z,3.97
2018-11-14T06:10:31.932Z,4.77
2018-11-14T06:13:00.125Z,2.60
2018-11-14T06:15:28.694Z,2.27
2018-11-14T06:17:57.810Z,8.93
2018-11-14T06:20:25.996Z,5.80
2018-11-14T06:22:54.293Z,13.40
2018-11-14T06:25:26.424Z,5.80
2018-11-14T06:27:55.620Z,3.53
2018-11-14T06:30:24.745Z,3.50
2018-11-14T06:32:53.433Z,5.77
2018-11-14T06:35:21.788Z,9.07
2018-11-14T06:37:50.689Z,9.63
2018-11-14T06:40:19.090Z,8.47
2018-11-14T06:42:47.281Z,9.47
2018-11-14T06:45:17.708Z,20.47
2018-11-14T06:47:47.965Z,21.23
2018-11-14T06:50:16.396Z,25.33
2018-11-14T06:52:45.497Z,11.83
2018-11-14T06:55:14.801Z,13.27
2018-11-14T06:57:43.258Z,9.20
2018-11-14T07:00:17.789Z,13.10
2018-11-14T07:02:46.916Z,19.83
2018-11-14T07:05:17.266Z,13.50
2018-11-14T07:07:45.580Z,10.80
2018-11-14T07:10:15.540Z,38.17
2018-11-14T07:12:43.949Z,36.13
2018-11-14T07:15:19.116Z,40.80
2018-11-14T07:17:48.250Z,29.10
2018-11-14T07:20:20.995Z,35.87
2018-11-14T07:22:49.336Z,29.00
2018-11-14T07:25:17.512Z,48.10
2018-11-14T07:27:45.924Z,12.93
2018-11-14T07:30:24.629Z,14.70
2018-11-14T07:32:54.251Z,13.73
2018-11-14T07:35:23.010Z,68.73
2018-11-14T07:38:58.905Z,30.30
2018-11-14T07:41:31.581Z,40.00
2018-11-14T07:43:59.872Z,35.60
2018-11-14T07:46:29.052Z,24.23
2018-11-14T07:48:57.449Z,26.00
2018-11-14T07:51:25.503Z,12.33
2018-11-14T07:53:53.608Z,12.50
2018-11-14T07:56:22.734Z,21.83
2018-11-14T07:58:50.876Z,63.00
2018-11-14T08:01:19.078Z,125.03
2018-11-14T08:03:47.732Z,237.87
2018-11-14T08:06:15.981Z,195.00
2018-11-14T08:08:44.686Z,233.57
2018-11-14T08:11:12.828Z,217.10
2018-11-14T08:13:43.593Z,105.50
2018-11-14T08:16:12.577Z,343.43
2018-11-14T08:18:40.790Z,27.10
2018-11-14T08:21:09.033Z,32.33
2018-11-14T08:23:37.173Z,77.83
2018-11-14T08:26:05.310Z,95.90
2018-11-14T08:28:33.626Z,73.57
2018-11-14T08:31:03.741Z,179.77
2018-11-14T08:33:31.916Z,257.47
2018-11-14T08:36:00.100Z,254.93
2018-11-14T08:38:28.253Z,109.77
2018-11-14T08:40:56.433Z,31.20
2018-11-14T08:43:24.627Z,77.07
2018-11-14T08:45:53.772Z,16.17
2018-11-14T08:48:22.032Z,129.07
2018-11-14T08:50:50.200Z,37.13
2018-11-14T08:53:18.349Z,34.60
2018-11-14T08:55:46.461Z,44.57
2018-11-14T08:58:14.632Z,15.07
2018-11-14T09:00:42.873Z,16.80
2018-11-14T09:03:12.304Z,16.00
2018-11-14T09:05:40.440Z,20.87
2018-11-14T09:08:08.624Z,20.90
2018-11-14T09:10:36.809Z,27.00
2018-11-14T09:13:05.060Z,17.73
2018-11-14T09:15:34.052Z,18.40
2018-11-14T09:18:06.966Z,19.13
2018-11-14T09:20:35.104Z,43.70
2018-11-14T09:23:04.080Z,10.53
2018-11-14T09:25:33.415Z,16.83
2018-11-14T09:28:03.008Z,7.67
2018-11-14T09:30:31.144Z,14.17
2018-11-14T09:32:59.414Z,15.73
2018-11-14T09:35:28.157Z,10.40
2018-11-14T09:37:57.452Z,9.10
2018-11-14T09:40:27.744Z,27.63
2018-11-14T09:42:56.385Z,10.53
2018-11-14T09:45:25.780Z,47.37
2018-11-14T09:47:54.945Z,33.60
2018-11-14T09:50:25.221Z,40.60
2018-11-14T09:52:56.961Z,32.17
2018-11-14T09:55:25.281Z,16.53
2018-11-14T09:57:53.472Z,13.30
2018-11-14T10:00:24.220Z,20.47
2018-11-14T10:02:54.194Z,10.27
2018-11-14T10:05:23.346Z,11.67
2018-11-14T10:07:51.531Z,11.83
2018-11-14T10:10:20.901Z,6.73
2018-11-14T10:12:49.016Z,6.77
2018-11-14T10:15:18.454Z,23.97
2018-11-14T10:17:47.186Z,4.50
2018-11-14T10:20:16.674Z,7.03
2018-11-14T10:22:45.223Z,10.73
2018-11-14T10:25:14.056Z,4.70
2018-11-14T10:27:42.988Z,16.43
2018-11-14T10:30:14.359Z,29.30
2018-11-14T10:32:43.488Z,5.70
2018-11-14T10:35:11.862Z,10.03
2018-11-14T10:37:40.246Z,14.80
2018-11-14T10:40:12.497Z,7.57
2018-11-14T10:42:41.019Z,9.97
2018-11-14T10:45:10.721Z,8.87
2018-11-14T10:47:38.896Z,24.87
2018-11-14T10:50:10.925Z,16.07
2018-11-14T10:52:39.337Z,9.83
2018-11-14T10:55:08.216Z,12.53
2018-11-14T10:57:36.797Z,21.77
2018-11-14T11:00:20.056Z,22.80
2018-11-14T11:02:53.895Z,5.60
2018-11-14T11:05:27.572Z,5.27
2018-11-14T11:08:06.709Z,13.87
2018-11-14T11:11:41.859Z,6.60
2018-11-14T11:14:16.343Z,10.50
2018-11-14T11:16:50.099Z,6.43
2018-11-14T11:19:19.555Z,8.67
2018-11-14T11:21:47.741Z,11.63
2018-11-14T11:24:17.217Z,11.47
2018-11-14T11:26:45.338Z,9.50
2018-11-14T11:29:13.630Z,8.93
2018-11-14T11:31:41.786Z,8.77
2018-11-14T11:34:10.642Z,8.70
2018-11-14T11:36:39.846Z,9.80
2018-11-14T11:39:11.720Z,8.10
2018-11-14T11:41:40.475Z,7.80
2018-11-14T11:44:08.963Z,13.20
2018-11-14T11:46:37.860Z,8.03
2018-11-14T11:49:06.785Z,8.77
2018-11-14T11:51:35.081Z,8.83
2018-11-14T11:54:05.324Z,12.80
2018-11-14T11:56:33.472Z,8.77
2018-11-14T11:59:03.808Z,7.27
2018-11-14T12:01:32.923Z,8.30
2018-11-14T12:06:34.603Z,9.43
2018-11-14T12:09:07.659Z,9.00
2018-11-14T12:11:35.832Z,6.03
2018-11-14T12:14:06.001Z,8.77
2018-11-14T12:16:34.145Z,7.77
2018-11-14T12:19:04.526Z,9.03
2018-11-14T12:21:32.625Z,6.67
2018-11-14T12:24:02.752Z,6.00
2018-11-14T12:26:30.892Z,5.77
2018-11-14T12:28:59.105Z,8.03
2018-11-14T12:31:28.157Z,5.70
2018-11-14T12:33:56.313Z,10.03
2018-11-14T12:36:24.501Z,4.97
2018-11-14T12:38:52.717Z,7.80
2018-11-14T12:41:20.816Z,8.77
2018-11-14T12:43:48.991Z,7.00
2018-11-14T12:46:17.137Z,7.63
2018-11-14T12:48:45.422Z,7.60
2018-11-14T12:51:13.631Z,7.40
2018-11-14T12:53:42.805Z,9.17
2018-11-14T12:56:10.985Z,10.90
2018-11-14T12:58:39.133Z,7.90
2018-11-14T13:01:07.263Z,9.17
2018-11-14T13:03:35.432Z,7.90
2018-11-14T13:06:06.766Z,7.13
2018-11-14T13:08:34.948Z,12.40
2018-11-14T13:11:05.140Z,10.70
2018-11-14T13:13:38.669Z,10.13
2018-11-14T13:16:07.193Z,11.70
2018-11-14T13:18:35.409Z,6.93
2018-11-14T13:21:08.968Z,8.27
2018-11-14T13:23:37.129Z,7.10
2018-11-14T13:26:06.052Z,6.43
2018-11-14T13:28:34.241Z,11.17
2018-11-14T13:31:03.425Z,7.13
2018-11-14T13:33:31.933Z,7.33
2018-11-14T13:36:00.078Z,8.67
2018-11-14T13:38:28.265Z,9.47
2018-11-14T13:40:56.433Z,8.33
2018-11-14T13:43:24.576Z,6.20
2018-11-14T13:45:52.740Z,7.07
2018-11-14T13:48:20.929Z,9.00
2018-11-14T13:50:49.340Z,6.53
2018-11-14T13:53:17.373Z,5.37
2018-11-14T13:55:45.515Z,7.17
2018-11-14T13:58:13.701Z,8.13
2018-11-14T14:00:41.873Z,9.23
2018-11-14T14:03:10.044Z,6.20
2018-11-14T14:05:38.241Z,12.93
2018-11-14T14:08:06.465Z,12.63
2018-11-14T14:10:34.625Z,6.00
2018-11-14T14:13:06.097Z,7.20
2018-11-14T14:15:34.277Z,7.43
2018-11-14T14:18:05.292Z,6.33
2018-11-14T14:20:34.350Z,7.13
2018-11-14T14:23:04.273Z,6.67
2018-11-14T14:25:32.805Z,7.47
2018-11-14T14:28:03.691Z,10.70
2018-11-14T14:30:33.300Z,7.27
2018-11-14T14:33:06.189Z,5.00
2018-11-14T14:35:34.335Z,5.83
2018-11-14T14:38:05.990Z,8.27
2018-11-14T14:40:34.111Z,6.60
2018-11-14T14:43:04.950Z,10.30
2018-11-14T14:45:33.101Z,8.23
2018-11-14T14:48:04.642Z,8.47
2018-11-14T14:50:32.777Z,7.70
2018-11-14T14:53:04.880Z,9.40
2018-11-14T14:55:33.094Z,10.00
2018-11-14T14:58:01.965Z,7.50
2018-11-14T15:00:30.120Z,8.40
2018-11-14T15:02:58.957Z,7.70
2018-11-14T15:05:27.117Z,10.60
2018-11-14T15:07:55.260Z,8.30
2018-11-14T15:10:24.793Z,8.90
2018-11-14T15:12:52.957Z,10.30
2018-11-14T15:15:21.507Z,11.27
2018-11-14T15:17:49.608Z,12.03
2018-11-14T15:20:19.861Z,11.90
2018-11-14T15:22:48.074Z,12.60
2018-11-14T15:25:18.541Z,9.47
2018-11-14T15:27:47.247Z,8.73
2018-11-14T15:30:23.917Z,9.80
2018-11-14T15:32:52.066Z,11.30
2018-11-14T15:35:20.310Z,10.20
2018-11-14T15:37:48.404Z,10.00
2018-11-14T15:40:17.717Z,21.33
2018-11-14T15:42:46.059Z,12.37
2018-11-14T15:45:24.189Z,12.80
2018-11-14T15:47:52.337Z,18.90
2018-11-14T15:50:21.897Z,25.73
2018-11-14T15:52:50.985Z,22.80
2018-11-14T15:55:19.890Z,19.70
2018-11-14T15:57:48.373Z,20.43
2018-11-14T16:00:26.576Z,20.83
2018-11-14T16:02:56.293Z,24.13
2018-11-14T16:05:27.191Z,23.37
2018-11-14T16:07:57.796Z,27.17
2018-11-14T16:10:26.836Z,42.20
2018-11-14T16:13:05.880Z,25.93
2018-11-14T16:15:36.666Z,23.93
2018-11-14T16:18:09.987Z,24.57
2018-11-14T16:20:41.271Z,20.30
2018-11-14T16:23:14.376Z,17.37
2018-11-14T16:25:43.673Z,22.13
2018-11-14T16:28:13.106Z,25.30
2018-11-14T16:30:43.997Z,28.10
2018-11-14T16:33:12.477Z,22.70
2018-11-14T16:35:43.877Z,27.17
2018-11-14T16:38:12.776Z,25.47
2018-11-14T16:40:42.368Z,30.20
2018-11-14T16:43:14.572Z,28.67
2018-11-14T16:45:43.957Z,27.00
2018-11-14T16:48:22.671Z,25.30
2018-11-14T16:50:57.085Z,21.70
2018-11-14T16:53:25.312Z,23.03
2018-11-14T16:55:57.770Z,17.07
2018-11-14T16:58:28.857Z,14.80
2018-11-14T17:00:58.749Z,17.07
2018-11-14T17:03:29.367Z,18.77
2018-11-14T17:05:59.402Z,19.30
2018-11-14T17:08:30.909Z,22.50
2018-11-14T17:11:04.898Z,21.87
2018-11-14T17:13:34.921Z,16.67
2018-11-14T17:16:05.034Z,25.83
2018-11-14T17:18:38.514Z,23.30
2018-11-14T17:21:10.907Z,25.53
2018-11-14T17:23:42.089Z,25.80
2018-11-14T17:26:12.650Z,21.93
2018-11-14T17:28:44.847Z,26.97
2018-11-14T17:31:13.073Z,25.33
2018-11-14T17:33:42.021Z,23.13
2018-11-14T17:36:11.769Z,23.57
2018-11-14T17:38:41.744Z,25.80
2018-11-14T17:41:11.413Z,28.13
2018-11-14T17:43:43.316Z,27.00
2018-11-14T17:46:16.968Z,25.97
2018-11-14T17:48:48.105Z,22.13
2018-11-14T17:51:18.757Z,21.50
2018-11-14T17:53:47.582Z,24.00
2018-11-14T17:56:17.068Z,20.63
2018-11-14T17:58:48.161Z,20.87
2018-11-14T18:01:18.014Z,24.17
2018-11-14T18:03:52.381Z,29.57
2018-11-14T18:06:22.584Z,23.37
2018-11-14T18:08:51.720Z,24.73
2018-11-14T18:11:20.881Z,26.10
2018-11-14T18:13:50.368Z,24.40
2018-11-14T18:16:19.874Z,13.27
2018-11-14T18:18:48.937Z,23.53
2018-11-14T18:21:17.816Z,18.83
2018-11-14T18:23:48.249Z,23.20
2018-11-14T18:26:20.973Z,23.57
2018-11-14T18:28:49.221Z,24.50
2018-11-14T18:31:20.527Z,21.10
2018-11-14T18:33:50.688Z,36.47
2018-11-14T18:36:19.824Z,47.43
2018-11-14T18:38:48.241Z,32.07
2018-11-14T18:41:19.230Z,35.17
2018-11-14T18:43:50.495Z,45.00
2018-11-14T18:46:18.999Z,56.40
2018-11-14T18:48:49.405Z,47.03
2018-11-14T18:51:19.640Z,51.13
2018-11-14T18:53:48.889Z,43.70
2018-11-14T18:56:18.074Z,24.63
2018-11-14T18:58:47.610Z,64.60
2018-11-14T19:01:17.982Z,39.33
2018-11-14T19:03:46.817Z,64.03
2018-11-14T19:06:16.118Z,60.43
2018-11-14T19:08:47.164Z,47.37
2018-11-14T19:11:18.132Z,77.20
2018-11-14T19:13:47.636Z,90.30
2018-11-14T19:16:18.957Z,47.80
2018-11-14T19:18:48.544Z,55.10
2018-11-14T19:21:18.165Z,59.13
2018-11-14T19:23:46.637Z,44.40
2018-11-14T19:26:15.741Z,80.27
2018-11-14T19:28:46.565Z,58.17
2018-11-14T19:31:15.345Z,51.50
2018-11-14T19:33:44.461Z,53.13
2018-11-14T19:36:16.122Z,70.67
2018-11-14T19:38:45.525Z,42.63
2018-11-14T19:41:18.440Z,46.17
2018-11-14T19:43:47.720Z,62.00
2018-11-14T19:46:20.701Z,59.90
2018-11-14T19:48:49.724Z,69.83
2018-11-14T19:51:21.766Z,47.53
2018-11-14T19:53:51.668Z,57.50
2018-11-14T19:56:21.326Z,50.07
2018-11-14T19:58:51.943Z,50.10
2018-11-14T20:01:21.548Z,56.33
2018-11-14T20:03:50.580Z,65.83
2018-11-14T20:06:19.350Z,61.97
2018-11-14T20:08:49.516Z,75.90
2018-11-14T20:11:21.301Z,60.23
2018-11-14T20:13:49.555Z,56.23
2018-11-14T20:16:19.733Z,51.47
2018-11-14T20:18:51.016Z,46.70
2018-11-14T20:21:19.230Z,57.30
2018-11-14T20:23:49.019Z,53.20
2018-11-14T20:26:18.961Z,61.00
2018-11-14T20:28:55.182Z,46.37
2018-11-14T20:31:24.808Z,52.07
2018-11-14T20:33:56.668Z,68.53
2018-11-14T20:36:29.332Z,43.17
2018-11-14T20:38:59.475Z,49.33
2018-11-14T20:41:30.401Z,49.47
2018-11-14T20:44:01.309Z,44.13
2018-11-14T20:46:34.182Z,40.80
2018-11-14T20:49:06.996Z,50.70
2018-11-14T20:51:35.520Z,42.80
2018-11-14T20:54:09.178Z,40.00
2018-11-14T20:56:37.996Z,44.80
2018-11-14T20:59:06.548Z,49.23
2018-11-14T21:01:36.012Z,43.47
2018-11-14T21:04:09.308Z,56.30
2018-11-14T21:06:39.357Z,46.23
2018-11-14T21:09:11.333Z,41.60
2018-11-14T21:11:39.472Z,43.10
2018-11-14T21:14:08.595Z,36.60
2018-11-14T21:16:38.408Z,43.27
2018-11-14T21:19:08.160Z,40.60
2018-11-14T21:21:39.716Z,48.13
2018-11-14T21:24:09.909Z,43.07
2018-11-14T21:26:38.667Z,43.50
2018-11-14T21:29:10.850Z,43.83
2018-11-14T21:31:39.024Z,34.80
2018-11-14T21:34:08.376Z,37.07
2018-11-14T21:36:38.881Z,34.63
2018-11-14T21:39:10.094Z,41.33
2018-11-14T21:41:39.441Z,39.63
2018-11-14T21:44:08.660Z,44.60
2018-11-14T21:46:38.433Z,44.87
2018-11-14T21:49:14.492Z,34.93
2018-11-14T21:51:45.530Z,38.67
2018-11-14T21:54:15.138Z,33.03
2018-11-14T21:56:45.743Z,32.77
2018-11-14T21:59:16.237Z,40.80
2018-11-14T22:01:46.633Z,44.30
2018-11-14T22:04:21.744Z,49.37
2018-11-14T22:06:49.916Z,37.33
2018-11-14T22:09:19.310Z,41.00
2018-11-14T22:11:48.371Z,37.83
2018-11-14T22:14:17.865Z,38.83
2018-11-14T22:16:55.402Z,38.87
2018-11-14T22:19:23.657Z,39.17
2018-11-14T22:21:55.107Z,47.40
2018-11-14T22:24:26.481Z,43.80
2018-11-14T22:26:59.062Z,39.37
2018-11-14T22:29:28.312Z,35.57
2018-11-14T22:31:59.317Z,36.87
2018-11-14T22:34:28.729Z,39.47
2018-11-14T22:39:36.664Z,37.53
2018-11-14T22:42:10.865Z,36.20
2018-11-14T22:44:43.048Z,48.27
2018-11-14T22:47:16.745Z,41.57
2018-11-14T22:49:46.661Z,45.17
2018-11-14T22:52:16.273Z,49.77
2018-11-14T22:54:46.271Z,40.83
2018-11-14T22:57:16.912Z,39.07
2018-11-14T22:59:46.688Z,41.93
2018-11-14T23:02:14.856Z,36.77
2018-11-14T23:04:44.289Z,46.23
2018-11-14T23:07:13.200Z,36.80
2018-11-14T23:09:43.278Z,35.60
2018-11-14T23:12:15.102Z,27.77
2018-11-14T23:14:43.937Z,33.90
2018-11-14T23:17:14.329Z,42.40
2018-11-14T23:19:46.620Z,49.87
2018-11-14T23:22:16.400Z,46.20
2018-11-14T23:24:55.703Z,46.63
2018-11-14T23:27:24.872Z,44.40
2018-11-14T23:29:53.825Z,37.50
2018-11-14T23:32:27.546Z,43.60
2018-11-14T23:35:05.663Z,37.70
2018-11-14T23:37:35.761Z,41.33
2018-11-14T23:40:08.713Z,41.60
2018-11-14T23:42:39.076Z,38.47
2018-11-14T23:45:11.276Z,36.77
2018-11-14T23:47:44.039Z,35.30
2018-11-14T23:50:18.988Z,35.50
2018-11-14T23:52:48.634Z,36.13
2018-11-14T23:55:22.064Z,35.40
2018-11-14T23:57:52.197Z,36.80
